Time;durP1;ratioP1;P1;durP2;ratioP2;P2;SDS_P1;SDS_P2;PMS_P1;PMS_P2;Temp;Humidity;BMP_temperature;BMP_pressure;BME280_temperature;BME280_humidity;BME280_pressure;Samples;Min_cycle;Max_cycle;Signal;HPM_P1;HPM_P2
2021/07/15 00:04:10;;;;;;;43.83;33.00;;;;;;;19.07;90.03;101033.66;10460840;28;20045;-63
2021/07/15 00:09:13;;;;;;;49.85;35.58;;;;;;;19.24;89.55;101022.34;10461226;28;20049;-62
2021/07/15 00:14:20;;;;;;;47.03;34.10;;;;;;;19.08;89.70;101025.56;10459974;28;20404;-61
2021/07/15 00:19:24;;;;;;;52.42;34.47;;;;;;;18.86;90.46;101031.09;10460385;28;20049;-60
2021/07/15 00:24:27;;;;;;;42.80;29.20;;;;;;;18.86;90.64;101023.13;10460764;28;20413;-62
2021/07/15 00:29:30;;;;;;;34.35;28.48;;;;;;;18.98;90.16;101035.31;10459312;28;20056;-61
2021/07/15 00:34:32;;;;;;;25.58;22.45;;;;;;;18.99;90.02;101031.66;10460277;28;20401;-64
2021/07/15 00:39:34;;;;;;;34.97;27.83;;;;;;;18.86;90.61;101028.44;10459994;28;20052;-61
2021/07/15 00:44:37;;;;;;;43.25;30.30;;;;;;;18.90;90.18;101025.38;10460053;28;20064;-62
2021/07/15 00:49:40;;;;;;;20.85;17.40;;;;;;;18.97;89.81;101019.53;10459866;28;20053;-60
2021/07/15 00:54:43;;;;;;;46.85;28.73;;;;;;;18.98;90.42;101008.78;10458077;28;20481;-62
2021/07/15 00:59:47;;;;;;;33.80;25.83;;;;;;;18.88;90.37;101026.50;10459368;28;20052;-63
2021/07/15 01:04:49;;;;;;;55.80;31.55;;;;;;;18.80;90.94;101031.63;10459675;28;20064;-60
2021/07/15 01:09:52;;;;;;;22.00;19.38;;;;;;;18.78;90.35;101037.06;10458814;28;20390;-61
2021/07/15 01:15:18;;;;;;;36.47;24.75;;;;;;;18.92;89.94;101036.69;10457617;28;20049;-63
2021/07/15 01:20:32;;;;;;;23.13;19.15;;;;;;;18.75;90.44;101032.84;10457554;28;20131;-62
2021/07/15 01:25:51;;;;;;;28.92;22.70;;;;;;;18.79;90.13;101037.88;10458540;28;20060;-64
2021/07/15 01:30:59;;;;;;;40.05;27.48;;;;;;;18.62;90.97;101031.41;10457400;28;20056;-62
2021/07/15 01:36:08;;;;;;;35.50;24.45;;;;;;;18.56;90.73;101028.34;10457655;28;20500;-63
2021/07/15 01:41:23;;;;;;;34.70;25.92;;;;;;;18.62;89.92;101034.06;10456789;28;20045;-64
2021/07/15 01:46:26;;;;;;;26.02;21.40;;;;;;;18.57;90.63;101047.72;10456339;28;20493;-61
2021/07/15 01:51:29;;;;;;;35.20;23.95;;;;;;;18.74;90.31;101040.94;10456381;28;20049;-64
2021/07/15 01:56:33;;;;;;;28.15;21.83;;;;;;;18.64;90.48;101040.91;10455756;28;20490;-62
2021/07/15 02:01:36;;;;;;;27.92;20.40;;;;;;;18.73;89.49;101039.28;10455875;28;20485;-63
2021/07/15 02:06:41;;;;;;;37.03;25.50;;;;;;;18.58;89.99;101030.84;10456932;28;20049;-61
2021/07/15 02:11:46;;;;;;;26.08;20.08;;;;;;;18.50;90.18;101041.28;10457015;28;20056;-63
2021/07/15 02:16:51;;;;;;;21.98;17.83;;;;;;;18.54;90.06;101042.69;10455465;28;20056;-60
2021/07/15 02:21:55;;;;;;;24.95;18.48;;;;;;;18.54;90.48;101043.56;10455389;28;20528;-63
2021/07/15 02:26:58;;;;;;;27.05;20.45;;;;;;;18.48;90.33;101049.38;10455105;28;20049;-64
2021/07/15 02:32:05;;;;;;;22.55;19.35;;;;;;;18.43;90.45;101045.47;10455133;28;20523;-64
2021/07/15 02:37:10;;;;;;;33.72;22.70;;;;;;;18.45;90.32;101049.63;10456520;28;20072;-61
2021/07/15 02:42:12;;;;;;;43.55;29.67;;;;;;;18.34;90.61;101057.66;10458201;28;20056;-63
2021/07/15 02:47:14;;;;;;;40.05;23.77;;;;;;;18.42;90.51;101057.84;10464558;28;20053;-63
2021/07/15 02:52:17;;;;;;;27.38;22.23;;;;;;;18.44;90.21;101047.13;10463318;28;20045;-61
2021/07/15 02:57:34;;;;;;;40.22;26.42;;;;;;;18.60;90.05;101049.28;10462846;28;20045;-63
2021/07/15 03:03:19;;;;;;;34.63;23.60;;;;;;;18.52;89.85;101056.06;10462912;28;20051;-63
2021/07/15 03:08:32;;;;;;;58.42;30.80;;;;;;;18.49;90.31;101061.66;10463713;28;20059;-62
2021/07/15 03:13:37;;;;;;;31.45;21.70;;;;;;;18.50;89.46;101063.31;10463465;28;20057;-62
2021/07/15 03:18:41;;;;;;;33.45;23.88;;;;;;;18.40;90.02;101059.81;10463152;28;20041;-61
2021/07/15 03:23:44;;;;;;;41.92;25.17;;;;;;;18.51;89.89;101054.41;10462098;28;20049;-62
2021/07/15 03:28:47;;;;;;;31.42;21.05;;;;;;;18.45;89.96;101068.19;10461853;28;20056;-61
2021/07/15 03:33:51;;;;;;;27.95;18.05;;;;;;;18.27;90.25;101083.03;10461642;28;20049;-62
2021/07/15 03:38:54;;;;;;;32.58;20.60;;;;;;;17.99;91.28;101075.63;10461475;28;20160;-60
2021/07/15 03:43:57;;;;;;;46.92;24.70;;;;;;;18.04;91.36;101082.31;10461394;28;20068;-62
2021/07/15 03:49:00;;;;;;;30.77;19.17;;;;;;;18.19;91.20;101087.19;10462287;28;20045;-61
2021/07/15 03:54:03;;;;;;;21.98;16.75;;;;;;;18.21;90.94;101079.09;10459902;28;20060;-61
2021/07/15 03:59:06;;;;;;;21.33;16.92;;;;;;;18.26;90.21;101086.66;10460424;28;20577;-62
2021/07/15 04:04:09;;;;;;;26.98;17.40;;;;;;;18.25;90.52;101082.31;10462156;28;20132;-60
2021/07/15 04:09:12;;;;;;;30.65;18.23;;;;;;;18.35;89.96;101080.56;10459686;28;20053;-62
2021/07/15 04:14:20;;;;;;;21.70;15.85;;;;;;;18.25;89.88;101085.81;10444146;28;20051;-62
2021/07/15 04:19:23;;;;;;;25.33;16.73;;;;;;;18.21;89.88;101087.06;10459853;28;20452;-62
2021/07/15 04:24:26;;;;;;;13.75;12.25;;;;;;;18.27;89.75;101088.31;10459505;28;20061;-62
2021/07/15 04:29:30;;;;;;;17.92;13.57;;;;;;;18.20;89.82;101088.00;10459382;28;20056;-64
2021/07/15 04:34:35;;;;;;;28.98;17.17;;;;;;;18.25;89.91;101106.19;10459163;28;20508;-62
2021/07/15 04:39:37;;;;;;;16.40;12.63;;;;;;;18.18;89.77;101100.56;10458853;28;20045;-60
2021/07/15 04:44:40;;;;;;;12.68;9.73;;;;;;;18.23;89.74;101105.47;10458917;28;20072;-61
2021/07/15 04:49:44;;;;;;;14.57;11.10;;;;;;;18.04;90.21;101116.75;10458282;28;20489;-60
2021/07/15 04:54:47;;;;;;;10.57;9.07;;;;;;;18.14;90.11;101115.88;10458326;28;20056;-61
2021/07/15 04:59:49;;;;;;;12.32;9.70;;;;;;;18.09;90.16;101107.47;10458193;28;20053;-62
2021/07/15 05:04:53;;;;;;;20.85;12.18;;;;;;;17.99;90.59;101114.53;10458103;28;20052;-60
2021/07/15 05:09:55;;;;;;;18.15;11.95;;;;;;;18.02;90.66;101124.84;10459713;28;20124;-62
2021/07/15 05:14:58;;;;;;;10.00;8.75;;;;;;;18.25;89.60;101124.72;10458881;28;20053;-61
2021/07/15 05:20:00;;;;;;;16.08;10.30;;;;;;;18.16;89.91;101123.72;10458718;28;20049;-62
2021/07/15 05:25:05;;;;;;;24.27;14.88;;;;;;;18.12;90.44;101131.06;10458259;28;20049;-61
2021/07/15 05:30:08;;;;;;;23.88;16.10;;;;;;;18.21;90.47;101153.31;10458107;28;20492;-61
2021/07/15 05:35:10;;;;;;;28.13;16.92;;;;;;;18.16;90.63;101144.91;10457790;28;20508;-61
2021/07/15 05:40:13;;;;;;;26.33;15.93;;;;;;;18.15;90.52;101149.34;10456744;28;20044;-61
2021/07/15 05:45:16;;;;;;;28.15;15.85;;;;;;;18.33;90.18;101144.31;10457665;28;20048;-62
2021/07/15 05:50:18;;;;;;;31.02;17.60;;;;;;;18.28;89.76;101157.09;10457374;28;20393;-64
2021/07/15 05:55:20;;;;;;;24.67;15.90;;;;;;;18.24;90.57;101149.53;10457400;28;20053;-60
2021/07/15 06:00:22;;;;;;;31.75;18.90;;;;;;;18.40;89.86;101165.00;10457084;28;20049;-61
2021/07/15 06:05:28;;;;;;;39.95;19.55;;;;;;;18.27;89.71;101160.72;10456973;28;20049;-63
2021/07/15 06:10:30;;;;;;;29.27;15.82;;;;;;;18.22;90.18;101167.38;10456952;28;20107;-60
2021/07/15 06:15:32;;;;;;;34.08;18.85;;;;;;;18.06;90.97;101166.03;10456801;28;20076;-60
2021/07/15 06:20:35;;;;;;;37.25;18.83;;;;;;;18.28;90.68;101180.13;10456292;28;20059;-64
2021/07/15 06:25:37;;;;;;;34.03;18.98;;;;;;;18.25;90.60;101183.88;10456574;28;20132;-61
2021/07/15 06:30:40;;;;;;;37.97;22.67;;;;;;;18.18;90.95;101195.97;10456674;28;20048;-61
2021/07/15 06:35:42;;;;;;;58.78;26.70;;;;;;;18.23;91.01;101198.22;10455181;28;20045;-61
2021/07/15 06:40:56;;;;;;;58.95;28.65;;;;;;;18.29;91.05;101190.59;10456453;28;20052;-61
2021/07/15 06:45:59;;;;;;;59.92;29.17;;;;;;;18.30;90.93;101191.44;10455322;28;20053;-61
2021/07/15 06:51:02;;;;;;;54.42;27.67;;;;;;;18.30;90.22;101202.03;10456076;28;20491;-60
2021/07/15 06:56:04;;;;;;;60.58;29.88;;;;;;;18.17;90.94;101215.47;10455821;28;20045;-59
2021/07/15 07:01:08;;;;;;;68.55;31.70;;;;;;;18.20;90.84;101221.34;10455753;28;20398;-62
2021/07/15 07:06:11;;;;;;;50.72;25.50;;;;;;;18.09;90.77;101218.75;10456193;28;20049;-60
2021/07/15 07:11:13;;;;;;;56.03;26.92;;;;;;;18.29;90.86;101217.13;10455932;28;20060;-62
2021/07/15 07:16:16;;;;;;;45.53;27.13;;;;;;;18.37;89.97;101216.44;10454462;28;20074;-61
2021/07/15 07:21:18;;;;;;;37.78;21.92;;;;;;;18.52;89.98;101219.63;10456015;28;20076;-62
2021/07/15 07:26:21;;;;;;;32.80;20.45;;;;;;;18.35;90.20;101229.84;10455226;28;20059;-59
2021/07/15 07:31:25;;;;;;;33.13;17.17;;;;;;;18.39;90.19;101233.06;10459577;28;20512;-62
2021/07/15 07:36:27;;;;;;;43.63;20.75;;;;;;;18.44;90.31;101233.53;10462698;28;20049;-61
2021/07/15 07:41:31;;;;;;;14.05;10.35;;;;;;;18.31;90.48;101233.72;10462410;28;20477;-61
2021/07/15 07:46:34;;;;;;;15.00;12.90;;;;;;;18.17;91.04;101240.19;10462376;28;20052;-60
2021/07/15 07:51:37;;;;;;;24.33;15.95;;;;;;;18.39;90.79;101251.63;10461994;28;20048;-62
2021/07/15 07:56:40;;;;;;;19.17;13.93;;;;;;;18.35;90.80;101260.81;10461953;28;20106;-61
2021/07/15 08:01:42;;;;;;;26.98;16.90;;;;;;;18.04;91.13;101281.88;10462241;28;20049;-60
2021/07/15 08:06:46;;;;;;;29.95;17.60;;;;;;;17.99;91.44;101276.13;10461457;28;20409;-63
2021/07/15 08:11:51;;;;;;;32.25;18.73;;;;;;;18.13;91.80;101280.28;10460355;28;20520;-61
2021/07/15 08:16:53;;;;;;;34.92;17.25;;;;;;;18.08;91.26;101278.00;10460894;28;20417;-63
2021/07/15 08:21:56;;;;;;;28.48;16.23;;;;;;;18.16;91.18;101272.94;10461174;28;20055;-65
2021/07/15 08:26:59;;;;;;;34.78;19.42;;;;;;;18.46;90.21;101278.47;10460562;28;20481;-63
2021/07/15 08:32:02;;;;;;;29.60;17.50;;;;;;;18.55;90.19;101281.19;10460436;28;20501;-64
2021/07/15 08:37:04;;;;;;;26.50;17.98;;;;;;;18.54;90.07;101286.63;10460111;28;20123;-62
2021/07/15 08:42:08;;;;;;;32.47;17.95;;;;;;;18.54;90.34;101286.63;10459840;28;20041;-61
2021/07/15 08:47:14;;;;;;;19.30;14.68;;;;;;;18.59;90.12;101296.84;10459835;28;20482;-63
2021/07/15 08:52:17;;;;;;;15.80;11.05;;;;;;;18.15;90.83;101310.97;10458754;28;20067;-62
2021/07/15 08:57:19;;;;;;;18.65;13.68;;;;;;;18.23;90.93;101318.31;10459552;28;20072;-62
2021/07/15 09:02:23;;;;;;;14.07;11.10;;;;;;;18.36;90.85;101326.94;10459341;28;20052;-61
2021/07/15 09:07:26;;;;;;;18.60;9.80;;;;;;;18.29;90.78;101330.22;10458976;28;20064;-61
2021/07/15 09:12:28;;;;;;;20.80;13.20;;;;;;;18.20;90.76;101335.28;10457448;28;20501;-62
2021/07/15 09:17:35;;;;;;;18.00;12.45;;;;;;;18.51;89.06;101327.50;10458411;28;20045;-63
2021/07/15 09:23:01;;;;;;;25.80;15.65;;;;;;;18.24;90.23;101341.22;10458774;28;20091;-63
2021/07/15 09:28:10;;;;;;;22.10;10.52;;;;;;;18.48;89.84;101354.25;10458045;28;20386;-62
2021/07/15 09:33:14;;;;;;;36.70;17.50;;;;;;;18.45;89.52;101358.97;10457213;28;20052;-63
2021/07/15 09:38:25;;;;;;;39.60;18.42;;;;;;;18.32;90.90;101359.97;10457846;28;20045;-63
2021/07/15 09:43:35;;;;;;;29.83;17.77;;;;;;;18.53;90.27;101354.72;10458307;28;20381;-62
2021/07/15 09:48:39;;;;;;;30.20;16.30;;;;;;;18.41;90.60;101357.53;10457341;28;20528;-61
2021/07/15 09:53:42;;;;;;;27.10;16.65;;;;;;;18.66;90.14;101353.69;10457406;28;20045;-61
2021/07/15 09:58:51;;;;;;;21.15;12.70;;;;;;;18.78;89.69;101359.78;10457274;28;20055;-62
2021/07/15 10:04:00;;;;;;;30.92;15.05;;;;;;;18.66;89.97;101356.34;10457723;28;20053;-62
2021/07/15 10:09:02;;;;;;;32.35;15.23;;;;;;;18.45;90.30;101364.28;10457114;28;20099;-63
2021/07/15 10:14:09;;;;;;;42.08;19.48;;;;;;;18.35;90.21;101372.13;10456741;28;20057;-63
2021/07/15 10:19:21;;;;;;;26.20;16.45;;;;;;;18.24;90.69;101372.16;10456909;28;20045;-63
2021/07/15 10:24:25;;;;;;;30.73;17.73;;;;;;;18.60;89.90;101368.31;10456696;28;20045;-62
2021/07/15 10:29:28;;;;;;;28.95;18.00;;;;;;;18.33;90.59;101382.03;10455005;28;20416;-62
2021/07/15 10:34:31;;;;;;;27.60;17.60;;;;;;;18.42;89.94;101386.56;10455133;28;20405;-61
2021/07/15 10:39:33;;;;;;;29.42;17.67;;;;;;;18.08;90.63;101393.75;10456536;28;20056;-64
2021/07/15 10:44:36;;;;;;;37.85;18.98;;;;;;;18.28;90.50;101386.88;10454935;28;20045;-63
2021/07/15 10:49:40;;;;;;;27.95;18.10;;;;;;;18.11;90.54;101396.16;10455031;28;20049;-62
2021/07/15 10:54:44;;;;;;;33.00;18.67;;;;;;;18.28;90.80;101405.41;10454995;28;20081;-64
2021/07/15 10:59:47;;;;;;;27.88;15.45;;;;;;;18.27;90.13;101398.41;10454675;28;20079;-62
2021/07/15 11:04:51;;;;;;;24.85;14.88;;;;;;;18.21;90.45;101407.72;10458574;28;20056;-63
2021/07/15 11:10:14;;;;;;;20.50;14.02;;;;;;;18.12;90.96;101409.31;10463689;28;20076;-63
2021/07/15 11:15:16;;;;;;;22.83;16.27;;;;;;;18.36;90.20;101411.78;10463806;28;20045;-64
2021/07/15 11:20:28;;;;;;;15.50;10.63;;;;;;;18.33;89.67;101417.31;10463185;28;20087;-64
2021/07/15 11:25:41;;;;;;;17.05;14.23;;;;;;;18.45;90.27;101414.66;10461981;28;20505;-64
2021/07/15 11:30:59;;;;;;;22.63;14.88;;;;;;;18.41;89.50;101432.63;10463147;28;20084;-62
2021/07/15 11:36:07;;;;;;;21.20;13.20;;;;;;;18.54;89.34;101424.50;10463167;28;20060;-63
2021/07/15 11:41:12;;;;;;;14.90;11.35;;;;;;;18.44;89.26;101428.88;10462751;28;20579;-63
2021/07/15 11:46:28;;;;;;;23.42;11.40;;;;;;;18.56;88.83;101433.19;10462818;28;20122;-64
2021/07/15 11:51:38;;;;;;;12.55;9.73;;;;;;;18.24;89.74;101428.69;10462368;28;20075;-63
2021/07/15 11:56:43;;;;;;;14.15;10.70;;;;;;;18.37;89.71;101434.69;10462468;28;20053;-66
2021/07/15 12:02:03;;;;;;;21.52;13.90;;;;;;;18.42;90.05;101439.59;10461936;28;20041;-63
2021/07/15 12:07:07;;;;;;;16.08;11.90;;;;;;;18.41;89.68;101445.88;10460771;28;20055;-62
2021/07/15 12:12:10;;;;;;;26.50;16.02;;;;;;;18.57;88.97;101445.47;10461315;28;20053;-63
2021/07/15 12:17:12;;;;;;;17.65;13.05;;;;;;;18.39;89.33;101445.13;10460625;28;20053;-62
2021/07/15 12:22:14;;;;;;;21.63;14.43;;;;;;;18.45;90.05;101459.72;10461177;28;20122;-62
2021/07/15 12:27:17;;;;;;;16.52;11.75;;;;;;;18.42;88.70;101452.84;10460583;28;20481;-63
2021/07/15 12:32:19;;;;;;;18.08;13.90;;;;;;;18.47;89.58;101455.13;10460527;28;20050;-62
2021/07/15 12:37:22;;;;;;;18.42;12.90;;;;;;;18.51;89.15;101465.38;10458949;28;20053;-63
2021/07/15 12:42:24;;;;;;;15.23;11.23;;;;;;;18.57;89.53;101471.97;10458837;28;20485;-62
2021/07/15 12:47:26;;;;;;;18.20;13.02;;;;;;;18.49;88.53;101475.28;10460041;28;20048;-63
2021/07/15 12:52:31;;;;;;;21.13;14.73;;;;;;;18.47;89.84;101481.66;10459900;28;20044;-63
2021/07/15 12:57:33;;;;;;;26.25;17.13;;;;;;;18.59;89.28;101478.00;10458203;28;20492;-64
2021/07/15 13:02:35;;;;;;;18.50;13.55;;;;;;;18.46;89.21;101474.66;10458100;28;20044;-63
2021/07/15 13:07:38;;;;;;;20.83;15.75;;;;;;;18.53;89.20;101487.31;10458830;28;20461;-63
2021/07/15 13:18:12;;;;;;;30.77;20.10;;;;;;;18.62;89.26;101487.53;10457661;28;20057;-62
2021/07/15 13:23:15;;;;;;;26.65;19.50;;;;;;;18.48;89.73;101491.31;10458165;28;20363;-60
2021/07/15 13:28:19;;;;;;;22.75;16.85;;;;;;;18.50;89.14;101489.38;10453419;28;20057;-61
2021/07/15 13:33:23;;;;;;;24.80;16.25;;;;;;;18.72;88.22;101499.91;10425393;28;20084;-61
2021/07/15 13:38:28;;;;;;;30.77;19.52;;;;;;;18.49;89.70;101501.78;10423777;28;20060;-62
2021/07/15 13:43:32;;;;;;;22.40;16.55;;;;;;;18.55;88.53;101505.75;10429439;28;20046;-61
2021/07/15 13:48:42;;;;;;;27.98;17.50;;;;;;;18.57;88.67;101509.94;10414865;28;20049;-60
2021/07/15 13:53:44;;;;;;;24.98;16.63;;;;;;;18.23;89.57;101498.53;10414969;28;20049;-61
2021/07/15 13:58:47;;;;;;;24.60;18.38;;;;;;;18.62;88.99;101498.97;10430387;28;20040;-62
2021/07/15 14:03:50;;;;;;;25.70;16.75;;;;;;;18.43;89.41;101520.00;10426542;28;20054;-65
2021/07/15 14:08:59;;;;;;;37.17;21.20;;;;;;;18.16;88.97;101524.69;10413555;28;20053;-61
2021/07/15 14:14:02;;;;;;;30.75;22.95;;;;;;;18.31;89.34;101525.28;10429216;28;20427;-61
2021/07/15 14:19:06;;;;;;;35.90;23.40;;;;;;;18.40;89.48;101536.13;10426846;28;20050;-61
2021/07/15 14:24:08;;;;;;;23.80;18.88;;;;;;;17.99;89.17;101526.00;10442502;28;20049;-62
2021/07/15 14:29:11;;;;;;;31.90;22.30;;;;;;;18.57;88.93;101530.31;10427612;28;20428;-62
2021/07/15 14:34:13;;;;;;;20.10;14.85;;;;;;;18.36;89.43;101549.63;10414088;28;20054;-61
2021/07/15 14:39:15;;;;;;;31.83;21.75;;;;;;;18.35;89.52;101553.22;10417645;28;20041;-60
2021/07/15 14:44:18;;;;;;;28.63;19.88;;;;;;;18.41;89.34;101551.06;10435064;28;20073;-59
2021/07/15 14:49:20;;;;;;;34.13;21.80;;;;;;;18.31;89.93;101553.63;10421868;28;20059;-61
2021/07/15 14:54:23;;;;;;;41.22;23.80;;;;;;;18.19;90.20;101558.06;10430546;28;20509;-61
2021/07/15 14:59:25;;;;;;;33.58;19.55;;;;;;;18.42;90.04;101568.66;10432040;28;20065;-61
2021/07/15 15:04:27;;;;;;;36.15;21.40;;;;;;;18.08;90.17;101566.81;10425228;28;20141;-62
2021/07/15 15:09:30;;;;;;;26.40;20.23;;;;;;;18.40;89.62;101573.25;10428469;28;20478;-62
2021/07/15 15:14:33;;;;;;;37.30;19.27;;;;;;;18.47;89.25;101569.16;10433519;28;20049;-61
2021/07/15 15:19:35;;;;;;;23.83;16.02;;;;;;;18.58;88.46;101582.41;10442904;28;20037;-61
2021/07/15 15:24:38;;;;;;;33.72;21.55;;;;;;;18.05;89.30;101592.72;10437981;28;20048;-60
2021/07/15 15:29:43;;;;;;;39.38;22.00;;;;;;;18.16;89.84;101582.16;10460201;28;20053;-66
2021/07/15 15:34:45;;;;;;;35.97;21.13;;;;;;;18.19;89.85;101593.34;10458204;28;20059;-65
2021/07/15 15:39:47;;;;;;;48.20;25.15;;;;;;;18.16;89.87;101593.59;10462564;28;20051;-63
2021/07/15 15:44:50;;;;;;;35.85;20.85;;;;;;;18.04;89.90;101593.66;10462624;28;20052;-64
2021/07/15 15:49:52;;;;;;;30.17;16.60;;;;;;;18.11;89.66;101600.22;10461475;28;20061;-66
2021/07/15 15:54:55;;;;;;;26.92;17.20;;;;;;;18.20;89.27;101599.47;10462200;28;20085;-66
2021/07/15 15:59:57;;;;;;;16.30;13.57;;;;;;;18.12;89.35;101609.81;10460748;28;20045;-63
2021/07/15 16:05:03;;;;;;;25.15;17.10;;;;;;;17.92;90.36;101609.56;10461618;28;20064;-65
2021/07/15 16:10:15;;;;;;;23.30;15.32;;;;;;;18.20;89.56;101621.53;10461769;28;20064;-65
2021/07/15 16:15:20;;;;;;;24.88;15.35;;;;;;;17.77;90.17;101610.66;10460054;28;20056;-65
2021/07/15 16:20:26;;;;;;;17.52;13.48;;;;;;;17.81;89.51;101602.38;10460789;28;20520;-64
2021/07/15 16:25:32;;;;;;;22.02;15.65;;;;;;;18.03;89.64;101594.66;10461477;28;20045;-64
2021/07/15 16:30:35;;;;;;;24.10;15.63;;;;;;;18.06;89.20;101608.50;10459554;28;20401;-63
2021/07/15 16:35:37;;;;;;;17.20;12.25;;;;;;;17.92;89.41;101600.75;10460407;28;20127;-63
2021/07/15 16:40:40;;;;;;;23.05;15.32;;;;;;;17.75;90.11;101615.22;10460213;28;20052;-64
2021/07/15 16:45:42;;;;;;;19.48;13.20;;;;;;;17.72;89.38;101624.25;10458914;28;20064;-65
2021/07/15 16:50:44;;;;;;;19.15;12.48;;;;;;;17.86;89.70;101614.44;10460073;28;20067;-65
2021/07/15 16:55:47;;;;;;;19.50;12.65;;;;;;;17.75;89.71;101621.41;10459572;28;20481;-64
2021/07/15 17:00:49;;;;;;;20.92;15.02;;;;;;;18.07;89.16;101615.50;10458029;28;20535;-64
2021/07/15 17:05:52;;;;;;;15.63;12.02;;;;;;;18.18;88.50;101619.97;10457927;28;20057;-64
2021/07/15 17:10:56;;;;;;;18.38;12.75;;;;;;;17.92;88.53;101625.44;10459175;28;20103;-64
2021/07/15 17:15:58;;;;;;;19.35;15.43;;;;;;;17.76;89.32;101633.66;10459252;28;20052;-66
2021/07/15 17:21:01;;;;;;;20.40;14.85;;;;;;;17.79;89.64;101638.72;10458860;28;20092;-64
2021/07/15 17:26:05;;;;;;;23.30;15.40;;;;;;;17.90;89.45;101639.75;10458294;28;20057;-64
2021/07/15 17:31:13;;;;;;;19.42;12.43;;;;;;;18.03;88.56;101637.03;10458561;28;20045;-63
2021/07/15 17:36:16;;;;;;;23.02;15.13;;;;;;;18.04;88.56;101641.34;10457970;28;20519;-64
2021/07/15 17:41:19;;;;;;;30.95;17.15;;;;;;;17.90;89.00;101645.91;10456750;28;20045;-63
2021/07/15 17:46:21;;;;;;;23.60;15.75;;;;;;;17.81;89.02;101644.75;10457568;28;20049;-63
2021/07/15 17:51:24;;;;;;;28.23;18.30;;;;;;;17.89;88.75;101652.16;10457767;28;20051;-64
2021/07/15 17:56:26;;;;;;;23.35;16.75;;;;;;;17.99;88.49;101654.97;10457106;28;20052;-64
2021/07/15 18:01:28;;;;;;;24.88;15.02;;;;;;;18.06;88.89;101647.41;10457904;28;20045;-64
2021/07/15 18:06:32;;;;;;;26.77;17.55;;;;;;;17.90;89.06;101655.66;10457004;28;20428;-62
2021/07/15 18:11:35;;;;;;;26.55;17.67;;;;;;;18.01;88.96;101661.84;10457314;28;20071;-63
2021/07/15 18:16:37;;;;;;;34.88;19.33;;;;;;;18.16;88.02;101662.50;10455978;28;20041;-64
2021/07/15 18:21:40;;;;;;;28.33;15.93;;;;;;;18.02;88.39;101673.28;10456523;28;20047;-63
2021/07/15 18:26:44;;;;;;;30.45;17.25;;;;;;;18.11;88.60;101677.06;10456355;28;20425;-65
2021/07/15 18:31:47;;;;;;;24.67;15.50;;;;;;;17.90;88.89;101684.78;10456635;28;20045;-65
2021/07/15 18:36:49;;;;;;;31.23;17.67;;;;;;;17.91;88.92;101683.84;10456424;28;20045;-64
2021/07/15 18:41:52;;;;;;;35.15;17.92;;;;;;;17.98;88.55;101688.56;10455297;28;20052;-64
2021/07/15 18:46:56;;;;;;;29.45;16.23;;;;;;;17.90;88.65;101698.88;10453672;28;20099;-64
2021/07/15 18:52:00;;;;;;;30.63;16.10;;;;;;;17.90;88.55;101701.53;10456076;28;20111;-63
2021/07/15 18:57:06;;;;;;;21.42;14.07;;;;;;;17.81;88.48;101703.03;10456475;28;20041;-64
2021/07/15 19:02:08;;;;;;;30.23;15.93;;;;;;;17.91;88.27;101702.38;10456489;28;20051;-64
2021/07/15 19:07:11;;;;;;;28.38;12.05;;;;;;;17.89;88.18;101704.31;10455778;28;20049;-64
2021/07/15 19:12:14;;;;;;;26.25;12.00;;;;;;;17.70;88.46;101721.53;10455715;28;20390;-63
2021/07/15 19:17:16;;;;;;;30.17;13.98;;;;;;;17.63;88.92;101720.25;10455417;28;20049;-63
2021/07/15 19:22:18;;;;;;;23.88;12.48;;;;;;;17.59;88.98;101721.47;10455805;28;20049;-64
2021/07/15 19:27:21;;;;;;;23.73;12.02;;;;;;;17.58;88.97;101725.88;10461429;28;20048;-62
2021/07/15 19:32:24;;;;;;;17.48;10.38;;;;;;;17.69;88.49;101722.47;10463180;28;20045;-63
2021/07/15 19:37:27;;;;;;;23.27;12.20;;;;;;;17.60;88.67;101734.59;10462872;28;20052;-64
2021/07/15 19:42:29;;;;;;;22.65;13.05;;;;;;;17.75;88.78;101755.59;10462921;28;20052;-64
2021/07/15 19:47:31;;;;;;;16.45;9.70;;;;;;;18.01;87.59;101777.59;10462610;28;20055;-64
2021/07/15 19:52:34;;;;;;;35.67;13.57;;;;;;;17.61;88.98;101791.88;10462386;28;20045;-62
2021/07/15 19:57:42;;;;;;;28.27;13.52;;;;;;;17.60;88.93;101798.13;10462279;28;20044;-64
2021/07/15 20:02:44;;;;;;;19.55;11.15;;;;;;;17.68;88.68;101807.31;10462038;28;20049;-63
2021/07/15 20:07:47;;;;;;;23.60;11.98;;;;;;;17.69;88.55;101816.97;10461671;28;20053;-63
2021/07/15 20:12:50;;;;;;;20.65;11.95;;;;;;;17.76;88.25;101810.28;10462064;28;20055;-63
2021/07/15 20:17:59;;;;;;;23.48;12.30;;;;;;;17.56;88.12;101807.22;10461168;28;20053;-65
2021/07/15 20:23:03;;;;;;;22.48;10.32;;;;;;;17.59;88.06;101817.63;10461978;28;20056;-64
2021/07/15 20:28:07;;;;;;;18.27;9.98;;;;;;;17.70;88.06;101822.16;10459722;28;20056;-64
2021/07/15 20:33:09;;;;;;;25.15;11.60;;;;;;;17.36;88.44;101827.16;10461311;28;20053;-64
2021/07/15 20:38:12;;;;;;;25.85;9.70;;;;;;;17.53;88.08;101833.91;10459641;28;20503;-63
2021/07/15 20:43:14;;;;;;;21.90;9.82;;;;;;;17.52;88.00;101834.91;10460393;28;20048;-64
2021/07/15 20:48:17;;;;;;;20.95;11.07;;;;;;;17.48;88.38;101848.44;10459674;28;20048;-64
2021/07/15 20:53:19;;;;;;;19.55;10.63;;;;;;;17.27;88.69;101841.91;10460051;28;20048;-64
2021/07/15 20:58:21;;;;;;;21.73;11.63;;;;;;;17.21;88.49;101847.59;10459580;28;20056;-65
2021/07/15 21:03:23;;;;;;;24.00;10.13;;;;;;;17.25;89.21;101850.91;10459893;28;20044;-63
2021/07/15 21:08:26;;;;;;;25.48;10.73;;;;;;;17.03;89.21;101857.66;10459399;28;20453;-65
2021/07/15 21:13:28;;;;;;;22.58;9.93;;;;;;;17.25;88.48;101849.09;10459662;28;20056;-63
2021/07/15 21:18:31;;;;;;;21.70;10.20;;;;;;;16.97;89.20;101854.59;10458722;28;20374;-64
2021/07/15 21:23:33;;;;;;;28.60;11.80;;;;;;;16.92;89.71;101846.13;10459214;28;20060;-66
2021/07/15 21:28:36;;;;;;;27.13;13.02;;;;;;;16.78;90.33;101865.50;10458446;28;20053;-64
2021/07/15 21:33:38;;;;;;;27.85;12.60;;;;;;;16.95;89.47;101869.72;10457304;28;20056;-62
2021/07/15 21:38:40;;;;;;;17.55;11.18;;;;;;;16.90;89.57;101876.16;10458010;28;20044;-63
2021/07/15 21:43:42;;;;;;;22.10;12.95;;;;;;;16.96;89.39;101871.41;10458356;28;20041;-63
2021/07/15 21:48:45;;;;;;;18.85;11.15;;;;;;;17.05;89.13;101871.63;10456614;28;20053;-64
2021/07/15 21:53:47;;;;;;;17.08;9.50;;;;;;;17.02;88.27;101882.41;10456527;28;20083;-63
2021/07/15 21:58:50;;;;;;;28.00;14.10;;;;;;;16.64;89.61;101879.66;10457687;28;20041;-64
2021/07/15 22:03:52;;;;;;;26.95;12.50;;;;;;;16.58;89.85;101880.06;10457226;28;20507;-64
2021/07/15 22:08:55;;;;;;;29.63;16.00;;;;;;;16.54;90.38;101882.03;10456901;28;20059;-63
2021/07/15 22:13:57;;;;;;;23.52;11.85;;;;;;;16.70;89.47;101888.03;10457272;28;20059;-64
2021/07/15 22:18:59;;;;;;;15.75;9.35;;;;;;;16.55;89.43;101885.56;10455519;28;20045;-63
2021/07/15 22:24:02;;;;;;;19.35;11.27;;;;;;;16.53;89.46;101883.84;10457030;28;20049;-63
2021/07/15 22:29:06;;;;;;;30.77;11.70;;;;;;;16.55;88.96;101888.19;10455249;28;20049;-64
2021/07/15 22:34:08;;;;;;;18.60;9.85;;;;;;;16.70;89.18;101895.97;10457149;28;20045;-63
2021/07/15 22:39:11;;;;;;;30.33;12.27;;;;;;;16.60;88.75;101891.38;10456333;28;20049;-64
2021/07/15 22:44:14;;;;;;;29.30;14.30;;;;;;;16.48;89.60;101899.16;10456021;28;20075;-64
2021/07/15 22:49:16;;;;;;;27.27;12.00;;;;;;;16.59;89.57;101905.53;10456441;28;20044;-64
2021/07/15 22:54:18;;;;;;;22.70;11.85;;;;;;;16.60;88.72;101907.25;10456088;28;20444;-64